Terminal Aerodrome Forecast
Issued by NWS

Home | Current Version | Previous Version | Text Only | Print | Product List | Glossary On
Versions: 1 2 3 4 5 6 7 8 9 10 11 12 13 14 15 16 17 18 19
000
FTUS42 KILM 181700
TAFCRE
TAF
KCRE 181739Z 1818/1918 03006KT P6SM VCSH SCT025 SCT050
      TEMPO 1818/1820 3SM SHRA BKN020
     FM190500 04006KT P6SM BKN020 BKN050
     FM191300 04009KT P6SM SCT020 BKN050
     FM191500 05012KT 6SM -SHRA VCTS BKN035CB=

USA.gov is the U.S. government's official web portal to all federal, state and local government web resources and services.